EDDH/HAM METAR and TAF weather

Enter ICAO airport designator
Station Type Date Time Source
EDDH METAR 2022/06/29 01:20 UTC NOAA

EDDH 290120Z AUTO 06004KT CAVOK 14/12 Q1019 NOSIG


Station Type Date Time Source
EDDH Decoded METAR 2022/06/29 01:20 UTC NOAA

Hamburg-Fuhlsbuettel, Germany (EDDH) 53-38N 010-00E 15M
Jun 28, 2022 - 09:20 PM EDT / 2022.06.29 0120 UTC
Wind: from the ENE (060 degrees) at 5 MPH (4 KT):0
Visibility: greater than 7 mile(s):0
Temperature: 57 F (14 C)
Dew Point: 53 F (12 C)
Relative Humidity: 87%
Pressure (altimeter): 30.09 in. Hg (1019 hPa)
ob: EDDH 290120Z AUTO 06004KT CAVOK 14/12 Q1019 NOSIG
cycle: 1

Station Type Date Time Source
EDDH TAF 2022/06/28 18:27 UTC NOAA

TAF EDDH 281700Z 2818/2924 VRB02KT CAVOK

Example: see airport list